sensor_id;sensor_type;location;lat;lon;timestamp;temperature;humidity
324;DHT22;149;51.094;17.002;2023-12-04T00:01:45;-6.80;99.90
324;DHT22;149;51.094;17.002;2023-12-04T00:04:13;-6.80;99.90
324;DHT22;149;51.094;17.002;2023-12-04T00:06:43;-6.70;99.90
324;DHT22;149;51.094;17.002;2023-12-04T00:09:11;-6.80;99.90
324;DHT22;149;51.094;17.002;2023-12-04T00:11:38;-6.80;99.90
324;DHT22;149;51.094;17.002;2023-12-04T00:14:06;-6.80;99.90
324;DHT22;149;51.094;17.002;2023-12-04T00:16:36;-6.80;99.90
324;DHT22;149;51.094;17.002;2023-12-04T00:19:03;-6.80;99.90
324;DHT22;149;51.094;17.002;2023-12-04T00:21:30;-6.80;99.90
324;DHT22;149;51.094;17.002;2023-12-04T00:23:58;-6.80;99.90
324;DHT22;149;51.094;17.002;2023-12-04T00:26:24;-6.80;99.90
324;DHT22;149;51.094;17.002;2023-12-04T00:28:53;-6.90;99.90
324;DHT22;149;51.094;17.002;2023-12-04T00:31:20;-6.90;99.90
324;DHT22;149;51.094;17.002;2023-12-04T00:33:47;-7.00;99.90
324;DHT22;149;51.094;17.002;2023-12-04T00:36:15;-7.00;99.90
324;DHT22;149;51.094;17.002;2023-12-04T00:38:42;-7.00;99.90
324;DHT22;149;51.094;17.002;2023-12-04T00:41:10;-7.00;99.90
324;DHT22;149;51.094;17.002;2023-12-04T00:43:37;-7.00;99.90
324;DHT22;149;51.094;17.002;2023-12-04T00:46:05;-7.00;99.90
324;DHT22;149;51.094;17.002;2023-12-04T00:48:32;-7.00;99.90
324;DHT22;149;51.094;17.002;2023-12-04T00:50:59;-6.90;99.90
324;DHT22;149;51.094;17.002;2023-12-04T00:53:26;-7.00;99.90
324;DHT22;149;51.094;17.002;2023-12-04T00:55:53;-6.90;99.90
324;DHT22;149;51.094;17.002;2023-12-04T00:58:20;-6.90;99.90
324;DHT22;149;51.094;17.002;2023-12-04T01:00:49;-6.90;99.90
324;DHT22;149;51.094;17.002;2023-12-04T01:03:18;-6.80;99.90
324;DHT22;149;51.094;17.002;2023-12-04T01:05:46;-6.90;99.90
324;DHT22;149;51.094;17.002;2023-12-04T01:08:12;-6.90;99.90
324;DHT22;149;51.094;17.002;2023-12-04T01:10:40;-6.90;99.90
324;DHT22;149;51.094;17.002;2023-12-04T01:13:06;-6.90;99.90
324;DHT22;149;51.094;17.002;2023-12-04T01:15:34;-6.90;99.90
324;DHT22;149;51.094;17.002;2023-12-04T01:18:01;-7.10;99.90
324;DHT22;149;51.094;17.002;2023-12-04T01:20:29;-7.10;99.90
324;DHT22;149;51.094;17.002;2023-12-04T01:22:57;-7.10;99.90
324;DHT22;149;51.094;17.002;2023-12-04T01:25:24;-7.10;99.90
324;DHT22;149;51.094;17.002;2023-12-04T01:27:51;-7.20;99.90
324;DHT22;149;51.094;17.002;2023-12-04T01:30:18;-7.30;99.90
324;DHT22;149;51.094;17.002;2023-12-04T01:32:46;-7.30;99.90
324;DHT22;149;51.094;17.002;2023-12-04T01:35:13;-7.30;99.90
324;DHT22;149;51.094;17.002;2023-12-04T01:37:40;-7.30;99.90
324;DHT22;149;51.094;17.002;2023-12-04T01:40:09;-7.40;99.90
324;DHT22;149;51.094;17.002;2023-12-04T01:42:36;-7.40;99.90
324;DHT22;149;51.094;17.002;2023-12-04T01:45:03;-7.40;99.90
324;DHT22;149;51.094;17.002;2023-12-04T01:47:30;-7.40;99.90
324;DHT22;149;51.094;17.002;2023-12-04T01:49:57;-7.40;99.90
324;DHT22;149;51.094;17.002;2023-12-04T01:52:24;-7.40;99.90
324;DHT22;149;51.094;17.002;2023-12-04T01:54:52;-7.40;99.90
324;DHT22;149;51.094;17.002;2023-12-04T01:57:19;-7.50;99.90
324;DHT22;149;51.094;17.002;2023-12-04T01:59:46;-7.40;99.90
324;DHT22;149;51.094;17.002;2023-12-04T02:02:14;-7.50;99.90
324;DHT22;149;51.094;17.002;2023-12-04T02:04:41;-7.50;99.90
324;DHT22;149;51.094;17.002;2023-12-04T02:07:08;-7.50;99.90
324;DHT22;149;51.094;17.002;2023-12-04T02:09:37;-7.40;99.90
324;DHT22;149;51.094;17.002;2023-12-04T02:12:05;-7.60;99.90
324;DHT22;149;51.094;17.002;2023-12-04T02:14:33;-7.60;99.90
324;DHT22;149;51.094;17.002;2023-12-04T02:17:01;-7.60;99.90
324;DHT22;149;51.094;17.002;2023-12-04T02:19:31;-7.60;99.90
324;DHT22;149;51.094;17.002;2023-12-04T02:21:58;-7.60;99.90
324;DHT22;149;51.094;17.002;2023-12-04T02:24:26;-7.60;99.90
324;DHT22;149;51.094;17.002;2023-12-04T02:27:16;-7.60;99.90
324;DHT22;149;51.094;17.002;2023-12-04T02:29:52;-7.70;99.90
324;DHT22;149;51.094;17.002;2023-12-04T02:32:23;-7.80;99.90
324;DHT22;149;51.094;17.002;2023-12-04T02:34:53;-7.80;99.90
324;DHT22;149;51.094;17.002;2023-12-04T02:37:22;-7.80;99.90
324;DHT22;149;51.094;17.002;2023-12-04T02:39:50;-7.50;99.90
324;DHT22;149;51.094;17.002;2023-12-04T02:42:22;-7.60;99.90
324;DHT22;149;51.094;17.002;2023-12-04T02:44:52;-7.60;99.90
324;DHT22;149;51.094;17.002;2023-12-04T02:47:19;-7.50;99.90
324;DHT22;149;51.094;17.002;2023-12-04T02:49:46;-7.60;99.90
324;DHT22;149;51.094;17.002;2023-12-04T02:52:13;-7.50;99.90
324;DHT22;149;51.094;17.002;2023-12-04T02:54:40;-7.60;99.90
324;DHT22;149;51.094;17.002;2023-12-04T02:57:07;-7.70;99.90
324;DHT22;149;51.094;17.002;2023-12-04T02:59:35;-7.70;99.90
324;DHT22;149;51.094;17.002;2023-12-04T03:02:02;-7.70;99.90
324;DHT22;149;51.094;17.002;2023-12-04T03:04:30;-7.70;99.90
324;DHT22;149;51.094;17.002;2023-12-04T03:06:57;-7.70;99.90
324;DHT22;149;51.094;17.002;2023-12-04T03:09:25;-7.70;99.90
324;DHT22;149;51.094;17.002;2023-12-04T03:12:11;-7.80;99.90
324;DHT22;149;51.094;17.002;2023-12-04T03:14:39;-7.80;99.90
324;DHT22;149;51.094;17.002;2023-12-04T03:17:06;-7.90;99.90
324;DHT22;149;51.094;17.002;2023-12-04T03:19:33;-7.90;99.90
324;DHT22;149;51.094;17.002;2023-12-04T03:22:00;-7.80;99.90
324;DHT22;149;51.094;17.002;2023-12-04T03:24:28;-7.90;99.90
324;DHT22;149;51.094;17.002;2023-12-04T03:26:56;-7.90;99.90
324;DHT22;149;51.094;17.002;2023-12-04T03:29:23;-7.90;99.90
324;DHT22;149;51.094;17.002;2023-12-04T03:31:51;-7.80;99.90
324;DHT22;149;51.094;17.002;2023-12-04T03:34:18;-8.00;99.90
324;DHT22;149;51.094;17.002;2023-12-04T03:36:45;-8.00;99.90
324;DHT22;149;51.094;17.002;2023-12-04T03:39:12;-8.00;99.90
324;DHT22;149;51.094;17.002;2023-12-04T03:41:39;-8.10;99.90
324;DHT22;149;51.094;17.002;2023-12-04T03:44:07;-8.00;99.90
324;DHT22;149;51.094;17.002;2023-12-04T03:46:33;-8.10;99.90
324;DHT22;149;51.094;17.002;2023-12-04T03:49:01;-8.20;99.90
324;DHT22;149;51.094;17.002;2023-12-04T03:51:28;-8.20;99.90
324;DHT22;149;51.094;17.002;2023-12-04T03:53:56;-8.30;99.90
324;DHT22;149;51.094;17.002;2023-12-04T03:56:24;-8.40;99.90
324;DHT22;149;51.094;17.002;2023-12-04T03:58:51;-8.20;99.90
324;DHT22;149;51.094;17.002;2023-12-04T04:01:18;-8.20;99.90
324;DHT22;149;51.094;17.002;2023-12-04T04:03:45;-8.20;99.90
324;DHT22;149;51.094;17.002;2023-12-04T04:06:12;-8.30;99.90
324;DHT22;149;51.094;17.002;2023-12-04T04:08:40;-8.30;99.90
324;DHT22;149;51.094;17.002;2023-12-04T04:11:07;-8.30;99.90
324;DHT22;149;51.094;17.002;2023-12-04T04:13:34;-8.20;99.90
324;DHT22;149;51.094;17.002;2023-12-04T04:16:01;-8.30;99.90
324;DHT22;149;51.094;17.002;2023-12-04T04:18:28;-8.30;99.90
324;DHT22;149;51.094;17.002;2023-12-04T04:20:56;-8.30;99.90
324;DHT22;149;51.094;17.002;2023-12-04T04:23:23;-8.20;99.90
324;DHT22;149;51.094;17.002;2023-12-04T04:25:50;-8.10;99.90
324;DHT22;149;51.094;17.002;2023-12-04T04:28:17;-8.30;99.90
324;DHT22;149;51.094;17.002;2023-12-04T04:30:45;-8.40;99.90
324;DHT22;149;51.094;17.002;2023-12-04T04:33:12;-8.40;99.90
324;DHT22;149;51.094;17.002;2023-12-04T04:35:42;-8.40;99.90
324;DHT22;149;51.094;17.002;2023-12-04T04:38:09;-8.30;99.90
324;DHT22;149;51.094;17.002;2023-12-04T04:40:36;-8.30;99.90
324;DHT22;149;51.094;17.002;2023-12-04T04:43:05;-8.50;99.90
324;DHT22;149;51.094;17.002;2023-12-04T04:45:32;-8.40;99.90
324;DHT22;149;51.094;17.002;2023-12-04T04:47:59;-8.30;99.90
324;DHT22;149;51.094;17.002;2023-12-04T04:50:26;-8.30;99.90
324;DHT22;149;51.094;17.002;2023-12-04T04:52:53;-8.20;99.90
324;DHT22;149;51.094;17.002;2023-12-04T04:55:20;-8.10;99.90
324;DHT22;149;51.094;17.002;2023-12-04T04:58:07;-8.20;99.90
324;DHT22;149;51.094;17.002;2023-12-04T05:00:34;-8.20;99.90
324;DHT22;149;51.094;17.002;2023-12-04T05:03:01;-8.30;99.90
324;DHT22;149;51.094;17.002;2023-12-04T05:05:28;-8.20;99.90
324;DHT22;149;51.094;17.002;2023-12-04T05:07:56;-8.30;99.90
324;DHT22;149;51.094;17.002;2023-12-04T05:10:22;-8.30;99.90
324;DHT22;149;51.094;17.002;2023-12-04T05:12:50;-8.20;99.90
324;DHT22;149;51.094;17.002;2023-12-04T05:15:17;-8.20;99.90
324;DHT22;149;51.094;17.002;2023-12-04T05:17:45;-8.20;99.90
324;DHT22;149;51.094;17.002;2023-12-04T05:20:13;-8.20;99.90
324;DHT22;149;51.094;17.002;2023-12-04T05:22:40;-8.20;99.90
324;DHT22;149;51.094;17.002;2023-12-04T05:25:07;-8.20;99.90
324;DHT22;149;51.094;17.002;2023-12-04T05:27:34;-8.10;99.90
324;DHT22;149;51.094;17.002;2023-12-04T05:30:02;-8.10;99.90
324;DHT22;149;51.094;17.002;2023-12-04T05:32:29;-8.10;99.90
324;DHT22;149;51.094;17.002;2023-12-04T05:34:58;-8.10;99.90
324;DHT22;149;51.094;17.002;2023-12-04T05:37:25;-8.10;99.90
324;DHT22;149;51.094;17.002;2023-12-04T05:39:52;-8.00;99.90
324;DHT22;149;51.094;17.002;2023-12-04T05:42:20;-8.10;99.90
324;DHT22;149;51.094;17.002;2023-12-04T05:44:47;-8.00;99.90
324;DHT22;149;51.094;17.002;2023-12-04T05:47:14;-8.00;99.90
324;DHT22;149;51.094;17.002;2023-12-04T05:49:41;-8.00;99.90
324;DHT22;149;51.094;17.002;2023-12-04T05:52:09;-8.10;99.90
324;DHT22;149;51.094;17.002;2023-12-04T05:54:36;-8.00;99.90
324;DHT22;149;51.094;17.002;2023-12-04T05:57:04;-8.10;99.90
324;DHT22;149;51.094;17.002;2023-12-04T05:59:31;-8.10;99.90
324;DHT22;149;51.094;17.002;2023-12-04T06:01:58;-8.10;99.90
324;DHT22;149;51.094;17.002;2023-12-04T06:04:25;-8.00;99.90
324;DHT22;149;51.094;17.002;2023-12-04T06:06:51;-8.10;99.90
324;DHT22;149;51.094;17.002;2023-12-04T06:09:18;-8.10;99.90
324;DHT22;149;51.094;17.002;2023-12-04T06:11:46;-8.10;99.90
324;DHT22;149;51.094;17.002;2023-12-04T06:14:13;-8.10;99.90
324;DHT22;149;51.094;17.002;2023-12-04T06:16:40;-8.10;99.90
324;DHT22;149;51.094;17.002;2023-12-04T06:19:07;-8.10;99.90
324;DHT22;149;51.094;17.002;2023-12-04T06:21:35;-8.10;99.90
324;DHT22;149;51.094;17.002;2023-12-04T06:24:02;-8.10;99.90
324;DHT22;149;51.094;17.002;2023-12-04T06:26:34;-8.10;99.90
324;DHT22;149;51.094;17.002;2023-12-04T06:29:03;-8.20;99.90
324;DHT22;149;51.094;17.002;2023-12-04T06:31:30;-8.10;99.90
324;DHT22;149;51.094;17.002;2023-12-04T06:33:58;-8.20;99.90
324;DHT22;149;51.094;17.002;2023-12-04T06:36:26;-8.20;99.90
324;DHT22;149;51.094;17.002;2023-12-04T06:38:55;-8.30;99.90
324;DHT22;149;51.094;17.002;2023-12-04T06:41:23;-8.30;99.90
324;DHT22;149;51.094;17.002;2023-12-04T06:43:50;-8.20;99.90
324;DHT22;149;51.094;17.002;2023-12-04T06:46:21;-8.30;99.90
324;DHT22;149;51.094;17.002;2023-12-04T06:48:54;-8.30;99.90
324;DHT22;149;51.094;17.002;2023-12-04T06:51:24;-8.30;99.90
324;DHT22;149;51.094;17.002;2023-12-04T06:53:51;-8.30;99.90
324;DHT22;149;51.094;17.002;2023-12-04T06:56:18;-8.10;99.90
324;DHT22;149;51.094;17.002;2023-12-04T06:58:46;-8.10;99.90
324;DHT22;149;51.094;17.002;2023-12-04T07:01:14;-7.90;99.90
324;DHT22;149;51.094;17.002;2023-12-04T07:03:41;-7.80;99.90
324;DHT22;149;51.094;17.002;2023-12-04T07:06:08;-7.90;99.90
324;DHT22;149;51.094;17.002;2023-12-04T07:08:35;-8.00;99.90
324;DHT22;149;51.094;17.002;2023-12-04T07:11:03;-7.90;99.90
324;DHT22;149;51.094;17.002;2023-12-04T07:13:31;-8.00;99.90
324;DHT22;149;51.094;17.002;2023-12-04T07:15:58;-8.10;99.90
324;DHT22;149;51.094;17.002;2023-12-04T07:18:26;-8.10;99.90
324;DHT22;149;51.094;17.002;2023-12-04T07:20:53;-8.20;99.90
324;DHT22;149;51.094;17.002;2023-12-04T07:23:20;-8.20;99.90
324;DHT22;149;51.094;17.002;2023-12-04T07:25:52;-8.20;99.90
324;DHT22;149;51.094;17.002;2023-12-04T07:28:20;-8.20;99.90
324;DHT22;149;51.094;17.002;2023-12-04T07:30:47;-8.10;99.90
324;DHT22;149;51.094;17.002;2023-12-04T07:33:14;-8.20;99.90
324;DHT22;149;51.094;17.002;2023-12-04T07:35:42;-8.10;99.90
324;DHT22;149;51.094;17.002;2023-12-04T07:38:08;-8.10;99.90
324;DHT22;149;51.094;17.002;2023-12-04T07:40:36;-8.00;99.90
324;DHT22;149;51.094;17.002;2023-12-04T07:43:03;-7.90;99.90
324;DHT22;149;51.094;17.002;2023-12-04T07:45:30;-7.90;99.90
324;DHT22;149;51.094;17.002;2023-12-04T07:47:58;-7.90;99.90
324;DHT22;149;51.094;17.002;2023-12-04T07:50:24;-7.80;99.90
324;DHT22;149;51.094;17.002;2023-12-04T07:52:52;-7.70;99.90
324;DHT22;149;51.094;17.002;2023-12-04T07:55:19;-7.70;99.90
324;DHT22;149;51.094;17.002;2023-12-04T07:57:46;-7.60;99.90
324;DHT22;149;51.094;17.002;2023-12-04T08:00:14;-7.60;99.90
324;DHT22;149;51.094;17.002;2023-12-04T08:02:41;-7.60;99.90
324;DHT22;149;51.094;17.002;2023-12-04T08:05:12;-7.30;99.90
324;DHT22;149;51.094;17.002;2023-12-04T08:07:41;-7.30;99.90
324;DHT22;149;51.094;17.002;2023-12-04T08:10:08;-7.10;99.90
324;DHT22;149;51.094;17.002;2023-12-04T08:12:35;-7.20;99.90
324;DHT22;149;51.094;17.002;2023-12-04T08:15:04;-7.20;99.90
324;DHT22;149;51.094;17.002;2023-12-04T08:17:31;-7.10;99.90
324;DHT22;149;51.094;17.002;2023-12-04T08:19:59;-7.00;99.90
324;DHT22;149;51.094;17.002;2023-12-04T08:22:27;-6.90;99.90
324;DHT22;149;51.094;17.002;2023-12-04T08:24:54;-6.90;99.90
324;DHT22;149;51.094;17.002;2023-12-04T08:27:21;-6.80;99.90
324;DHT22;149;51.094;17.002;2023-12-04T08:29:49;-6.70;99.90
324;DHT22;149;51.094;17.002;2023-12-04T08:32:15;-6.60;99.90
324;DHT22;149;51.094;17.002;2023-12-04T08:34:43;-6.50;99.90
324;DHT22;149;51.094;17.002;2023-12-04T08:37:09;-6.40;99.90
324;DHT22;149;51.094;17.002;2023-12-04T08:39:37;-6.30;99.90
324;DHT22;149;51.094;17.002;2023-12-04T08:42:05;-6.20;99.90
324;DHT22;149;51.094;17.002;2023-12-04T08:44:40;-6.10;99.90
324;DHT22;149;51.094;17.002;2023-12-04T08:47:07;-6.00;99.90
324;DHT22;149;51.094;17.002;2023-12-04T08:49:35;-6.00;99.90
324;DHT22;149;51.094;17.002;2023-12-04T08:52:12;-5.90;99.90
324;DHT22;149;51.094;17.002;2023-12-04T08:54:40;-5.80;99.90
324;DHT22;149;51.094;17.002;2023-12-04T08:57:10;-5.70;99.90
324;DHT22;149;51.094;17.002;2023-12-04T08:59:37;-5.70;99.90
324;DHT22;149;51.094;17.002;2023-12-04T09:02:04;-5.60;99.90
324;DHT22;149;51.094;17.002;2023-12-04T09:04:38;-5.40;99.90
324;DHT22;149;51.094;17.002;2023-12-04T09:07:08;-5.30;99.90
324;DHT22;149;51.094;17.002;2023-12-04T09:09:37;-5.30;99.90
324;DHT22;149;51.094;17.002;2023-12-04T09:12:05;-5.10;99.90
324;DHT22;149;51.094;17.002;2023-12-04T09:14:34;-5.10;99.90
324;DHT22;149;51.094;17.002;2023-12-04T09:17:03;-5.00;99.90
324;DHT22;149;51.094;17.002;2023-12-04T09:19:32;-4.90;99.90
324;DHT22;149;51.094;17.002;2023-12-04T09:22:08;-5.00;99.90
324;DHT22;149;51.094;17.002;2023-12-04T09:24:46;-4.90;99.90
324;DHT22;149;51.094;17.002;2023-12-04T09:27:15;-4.80;99.90
324;DHT22;149;51.094;17.002;2023-12-04T09:29:56;-4.90;99.90
324;DHT22;149;51.094;17.002;2023-12-04T09:32:23;-4.90;99.90
324;DHT22;149;51.094;17.002;2023-12-04T09:34:51;-4.80;99.90
324;DHT22;149;51.094;17.002;2023-12-04T09:45:24;-4.70;99.90
324;DHT22;149;51.094;17.002;2023-12-04T09:50:39;-4.50;99.90
324;DHT22;149;51.094;17.002;2023-12-04T09:53:11;-4.40;99.90
324;DHT22;149;51.094;17.002;2023-12-04T09:55:38;-4.40;99.90
324;DHT22;149;51.094;17.002;2023-12-04T09:58:05;-4.30;99.90
324;DHT22;149;51.094;17.002;2023-12-04T10:00:32;-4.40;99.90
324;DHT22;149;51.094;17.002;2023-12-04T10:03:01;-4.30;99.90
324;DHT22;149;51.094;17.002;2023-12-04T10:05:29;-4.20;99.90
324;DHT22;149;51.094;17.002;2023-12-04T10:07:56;-4.10;99.90
324;DHT22;149;51.094;17.002;2023-12-04T10:10:23;-4.10;99.90
324;DHT22;149;51.094;17.002;2023-12-04T10:12:51;-3.90;99.90
324;DHT22;149;51.094;17.002;2023-12-04T10:15:19;-3.80;99.90
324;DHT22;149;51.094;17.002;2023-12-04T10:17:45;-3.80;99.90
324;DHT22;149;51.094;17.002;2023-12-04T10:20:15;-3.80;99.90
324;DHT22;149;51.094;17.002;2023-12-04T10:23:00;-3.70;99.90
324;DHT22;149;51.094;17.002;2023-12-04T10:25:29;-3.80;99.90
324;DHT22;149;51.094;17.002;2023-12-04T10:28:08;-3.80;99.90
324;DHT22;149;51.094;17.002;2023-12-04T10:30:36;-3.70;99.90
324;DHT22;149;51.094;17.002;2023-12-04T10:33:05;-3.70;99.90
324;DHT22;149;51.094;17.002;2023-12-04T10:35:34;-3.70;99.90
324;DHT22;149;51.094;17.002;2023-12-04T10:38:06;-3.80;99.90
324;DHT22;149;51.094;17.002;2023-12-04T10:40:39;-3.80;99.90
324;DHT22;149;51.094;17.002;2023-12-04T10:45:44;-3.90;99.90
324;DHT22;149;51.094;17.002;2023-12-04T10:48:13;-3.90;99.90
324;DHT22;149;51.094;17.002;2023-12-04T10:50:45;-3.80;99.90
324;DHT22;149;51.094;17.002;2023-12-04T10:53:13;-3.80;99.90
324;DHT22;149;51.094;17.002;2023-12-04T10:55:41;-3.60;99.90
324;DHT22;149;51.094;17.002;2023-12-04T10:58:10;-3.60;99.90
324;DHT22;149;51.094;17.002;2023-12-04T11:00:43;-3.50;99.90
324;DHT22;149;51.094;17.002;2023-12-04T11:03:36;-3.50;99.90
324;DHT22;149;51.094;17.002;2023-12-04T11:06:07;-3.40;99.90
324;DHT22;149;51.094;17.002;2023-12-04T11:08:37;-3.40;99.90
324;DHT22;149;51.094;17.002;2023-12-04T11:11:06;-3.50;99.90
324;DHT22;149;51.094;17.002;2023-12-04T11:13:42;-3.50;99.90
324;DHT22;149;51.094;17.002;2023-12-04T11:16:12;-3.40;99.90
324;DHT22;149;51.094;17.002;2023-12-04T11:18:46;-3.40;99.90
324;DHT22;149;51.094;17.002;2023-12-04T11:21:15;-3.30;99.90
324;DHT22;149;51.094;17.002;2023-12-04T11:23:43;-3.20;99.90
324;DHT22;149;51.094;17.002;2023-12-04T11:26:11;-3.10;99.90
324;DHT22;149;51.094;17.002;2023-12-04T11:28:39;-2.90;99.90
324;DHT22;149;51.094;17.002;2023-12-04T11:31:07;-2.90;99.90
324;DHT22;149;51.094;17.002;2023-12-04T11:33:36;-3.00;99.90
324;DHT22;149;51.094;17.002;2023-12-04T11:36:11;-2.90;99.90
324;DHT22;149;51.094;17.002;2023-12-04T11:38:48;-2.80;99.90
324;DHT22;149;51.094;17.002;2023-12-04T11:41:23;-2.90;99.90
324;DHT22;149;51.094;17.002;2023-12-04T11:43:56;-2.80;99.90
324;DHT22;149;51.094;17.002;2023-12-04T11:46:26;-2.80;99.90
324;DHT22;149;51.094;17.002;2023-12-04T11:49:20;-2.80;99.90
324;DHT22;149;51.094;17.002;2023-12-04T11:51:45;-2.90;99.90
324;DHT22;149;51.094;17.002;2023-12-04T11:54:16;-2.90;99.90
324;DHT22;149;51.094;17.002;2023-12-04T11:59:39;-3.10;99.90
324;DHT22;149;51.094;17.002;2023-12-04T12:02:13;-3.00;99.90
324;DHT22;149;51.094;17.002;2023-12-04T12:04:40;-3.00;99.90
324;DHT22;149;51.094;17.002;2023-12-04T12:07:08;-3.00;99.90
324;DHT22;149;51.094;17.002;2023-12-04T12:09:36;-3.10;99.90
324;DHT22;149;51.094;17.002;2023-12-04T12:12:04;-3.20;99.90
324;DHT22;149;51.094;17.002;2023-12-04T12:14:32;-3.20;99.90
324;DHT22;149;51.094;17.002;2023-12-04T12:17:04;-3.20;99.90
324;DHT22;149;51.094;17.002;2023-12-04T12:19:31;-3.30;99.90
324;DHT22;149;51.094;17.002;2023-12-04T12:22:02;-3.40;99.90
324;DHT22;149;51.094;17.002;2023-12-04T12:24:31;-3.40;99.90
324;DHT22;149;51.094;17.002;2023-12-04T12:26:59;-3.50;99.90
324;DHT22;149;51.094;17.002;2023-12-04T12:29:27;-3.50;99.90
324;DHT22;149;51.094;17.002;2023-12-04T12:31:55;-3.40;99.90
324;DHT22;149;51.094;17.002;2023-12-04T12:34:22;-3.60;99.90
324;DHT22;149;51.094;17.002;2023-12-04T12:36:51;-3.20;99.90
324;DHT22;149;51.094;17.002;2023-12-04T12:39:19;-3.60;99.90
324;DHT22;149;51.094;17.002;2023-12-04T12:41:50;-3.60;99.90
324;DHT22;149;51.094;17.002;2023-12-04T12:44:17;-3.80;99.90
324;DHT22;149;51.094;17.002;2023-12-04T12:46:48;-3.80;99.90
324;DHT22;149;51.094;17.002;2023-12-04T12:49:19;-3.90;99.90
324;DHT22;149;51.094;17.002;2023-12-04T12:52:02;-3.90;99.90
324;DHT22;149;51.094;17.002;2023-12-04T12:54:40;-3.90;99.90
324;DHT22;149;51.094;17.002;2023-12-04T12:57:09;-4.00;99.90
324;DHT22;149;51.094;17.002;2023-12-04T12:59:41;-4.10;99.90
324;DHT22;149;51.094;17.002;2023-12-04T13:02:09;-4.10;99.90
324;DHT22;149;51.094;17.002;2023-12-04T13:04:40;-4.30;99.90
324;DHT22;149;51.094;17.002;2023-12-04T13:07:07;-4.00;99.90
324;DHT22;149;51.094;17.002;2023-12-04T13:09:37;-4.10;99.90
324;DHT22;149;51.094;17.002;2023-12-04T13:12:05;-3.90;99.90
324;DHT22;149;51.094;17.002;2023-12-04T13:14:35;-3.90;99.90
324;DHT22;149;51.094;17.002;2023-12-04T13:17:03;-4.00;99.90
324;DHT22;149;51.094;17.002;2023-12-04T13:19:31;-4.10;99.90
324;DHT22;149;51.094;17.002;2023-12-04T13:22:06;-4.10;99.90
324;DHT22;149;51.094;17.002;2023-12-04T13:24:35;-4.20;99.90
324;DHT22;149;51.094;17.002;2023-12-04T13:27:02;-4.20;99.90
324;DHT22;149;51.094;17.002;2023-12-04T13:29:29;-4.20;99.90
324;DHT22;149;51.094;17.002;2023-12-04T13:31:57;-4.20;99.90
324;DHT22;149;51.094;17.002;2023-12-04T13:34:27;-4.20;99.90
324;DHT22;149;51.094;17.002;2023-12-04T13:36:55;-4.20;99.90
324;DHT22;149;51.094;17.002;2023-12-04T13:39:26;-4.20;99.90
324;DHT22;149;51.094;17.002;2023-12-04T13:42:14;-4.20;99.90
324;DHT22;149;51.094;17.002;2023-12-04T13:45:00;-4.20;99.90
324;DHT22;149;51.094;17.002;2023-12-04T13:47:29;-4.30;99.90
324;DHT22;149;51.094;17.002;2023-12-04T13:49:57;-4.30;99.90
324;DHT22;149;51.094;17.002;2023-12-04T13:52:28;-4.30;99.90
324;DHT22;149;51.094;17.002;2023-12-04T13:55:02;-4.30;99.90
324;DHT22;149;51.094;17.002;2023-12-04T13:57:35;-4.40;99.90
324;DHT22;149;51.094;17.002;2023-12-04T14:00:11;-4.30;99.90
324;DHT22;149;51.094;17.002;2023-12-04T14:02:40;-4.30;99.90
324;DHT22;149;51.094;17.002;2023-12-04T14:05:08;-4.20;99.90
324;DHT22;149;51.094;17.002;2023-12-04T14:07:35;-4.30;99.90
324;DHT22;149;51.094;17.002;2023-12-04T14:10:03;-4.20;99.90
324;DHT22;149;51.094;17.002;2023-12-04T14:12:30;-4.20;99.90
324;DHT22;149;51.094;17.002;2023-12-04T14:14:57;-4.30;99.90
324;DHT22;149;51.094;17.002;2023-12-04T14:17:25;-4.20;99.90
324;DHT22;149;51.094;17.002;2023-12-04T14:19:52;-4.20;99.90
324;DHT22;149;51.094;17.002;2023-12-04T14:22:20;-4.20;99.90
324;DHT22;149;51.094;17.002;2023-12-04T14:24:47;-4.20;99.90
324;DHT22;149;51.094;17.002;2023-12-04T14:27:15;-4.20;99.90
324;DHT22;149;51.094;17.002;2023-12-04T14:29:43;-4.20;99.90
324;DHT22;149;51.094;17.002;2023-12-04T14:32:11;-4.20;99.90
324;DHT22;149;51.094;17.002;2023-12-04T14:34:40;-4.20;99.90
324;DHT22;149;51.094;17.002;2023-12-04T14:37:07;-4.20;99.90
324;DHT22;149;51.094;17.002;2023-12-04T14:39:35;-4.20;99.90
324;DHT22;149;51.094;17.002;2023-12-04T14:42:02;-4.20;99.90
324;DHT22;149;51.094;17.002;2023-12-04T14:44:30;-4.30;99.90
324;DHT22;149;51.094;17.002;2023-12-04T14:46:57;-4.20;99.90
324;DHT22;149;51.094;17.002;2023-12-04T14:49:26;-4.30;99.90
324;DHT22;149;51.094;17.002;2023-12-04T14:51:53;-4.20;99.90
324;DHT22;149;51.094;17.002;2023-12-04T14:54:20;-4.20;99.90
324;DHT22;149;51.094;17.002;2023-12-04T14:56:49;-4.20;99.90
324;DHT22;149;51.094;17.002;2023-12-04T14:59:35;-4.10;99.90
324;DHT22;149;51.094;17.002;2023-12-04T15:02:18;-4.10;99.90
324;DHT22;149;51.094;17.002;2023-12-04T15:05:12;-4.20;99.90
324;DHT22;149;51.094;17.002;2023-12-04T15:07:54;-4.10;99.90
324;DHT22;149;51.094;17.002;2023-12-04T15:10:54;-4.10;99.90
324;DHT22;149;51.094;17.002;2023-12-04T15:13:40;-3.90;99.90
324;DHT22;149;51.094;17.002;2023-12-04T15:16:12;-4.10;99.90
324;DHT22;149;51.094;17.002;2023-12-04T15:18:40;-4.20;99.90
324;DHT22;149;51.094;17.002;2023-12-04T15:21:20;-4.10;99.90
324;DHT22;149;51.094;17.002;2023-12-04T15:23:49;-4.00;99.90
324;DHT22;149;51.094;17.002;2023-12-04T15:26:19;-4.10;99.90
324;DHT22;149;51.094;17.002;2023-12-04T15:28:50;-4.10;99.90
324;DHT22;149;51.094;17.002;2023-12-04T15:31:17;-4.10;99.90
324;DHT22;149;51.094;17.002;2023-12-04T15:33:47;-4.10;99.90
324;DHT22;149;51.094;17.002;2023-12-04T15:36:14;-4.10;99.90
324;DHT22;149;51.094;17.002;2023-12-04T15:38:41;-4.10;99.90
324;DHT22;149;51.094;17.002;2023-12-04T15:41:08;-4.00;99.90
324;DHT22;149;51.094;17.002;2023-12-04T15:43:36;-4.00;99.90
324;DHT22;149;51.094;17.002;2023-12-04T15:46:04;-4.00;99.90
324;DHT22;149;51.094;17.002;2023-12-04T15:48:33;-4.00;99.90
324;DHT22;149;51.094;17.002;2023-12-04T15:51:01;-4.00;99.90
324;DHT22;149;51.094;17.002;2023-12-04T15:53:28;-4.00;99.90
324;DHT22;149;51.094;17.002;2023-12-04T15:55:54;-4.00;99.90
324;DHT22;149;51.094;17.002;2023-12-04T15:58:22;-4.00;99.90
324;DHT22;149;51.094;17.002;2023-12-04T16:00:50;-4.00;99.90
324;DHT22;149;51.094;17.002;2023-12-04T16:03:17;-4.00;99.90
324;DHT22;149;51.094;17.002;2023-12-04T16:05:44;-3.90;99.90
324;DHT22;149;51.094;17.002;2023-12-04T16:08:12;-4.00;99.90
324;DHT22;149;51.094;17.002;2023-12-04T16:10:40;-3.90;99.90
324;DHT22;149;51.094;17.002;2023-12-04T16:13:07;-4.00;99.90
324;DHT22;149;51.094;17.002;2023-12-04T16:15:36;-4.00;99.90
324;DHT22;149;51.094;17.002;2023-12-04T16:18:03;-4.00;99.90
324;DHT22;149;51.094;17.002;2023-12-04T16:20:33;-4.00;99.90
324;DHT22;149;51.094;17.002;2023-12-04T16:23:00;-4.00;99.90
324;DHT22;149;51.094;17.002;2023-12-04T16:25:28;-4.00;99.90
324;DHT22;149;51.094;17.002;2023-12-04T16:27:55;-4.00;99.90
324;DHT22;149;51.094;17.002;2023-12-04T16:30:25;-4.00;99.90
324;DHT22;149;51.094;17.002;2023-12-04T16:32:52;-4.10;99.90
324;DHT22;149;51.094;17.002;2023-12-04T16:35:19;-4.10;99.90
324;DHT22;149;51.094;17.002;2023-12-04T16:37:46;-4.10;99.90
324;DHT22;149;51.094;17.002;2023-12-04T16:40:14;-4.10;99.90
324;DHT22;149;51.094;17.002;2023-12-04T16:42:41;-4.10;99.90
324;DHT22;149;51.094;17.002;2023-12-04T16:45:08;-4.20;99.90